Time;durP1;ratioP1;P1;durP2;ratioP2;P2;SDS_P1;SDS_P2;PMS_P1;PMS_P2;Temp;Humidity;BMP_temperature;BMP_pressure;BME280_temperature;BME280_humidity;BME280_pressure;Samples;Min_cycle;Max_cycle;Signal;HPM_P1;HPM_P2
2023/05/04 00:00:06;;;;;;;7.18;5.90;;;14.40;91.50;;;;;;5033541;28;20213;-32
2023/05/04 00:02:34;;;;;;;9.93;6.13;;;14.40;91.50;;;;;;5039855;28;20320;-32
2023/05/04 00:05:04;;;;;;;11.07;6.20;;;14.30;91.60;;;;;;5026770;28;20590;-32
2023/05/04 00:07:32;;;;;;;7.82;5.10;;;14.30;91.60;;;;;;5024272;28;20315;-32
2023/05/04 00:10:00;;;;;;;8.48;6.38;;;14.20;91.50;;;;;;5027418;28;20596;-32
2023/05/04 00:12:27;;;;;;;10.73;6.97;;;14.20;91.60;;;;;;5031634;28;20903;-33
2023/05/04 00:14:56;;;;;;;10.95;5.72;;;14.30;91.50;;;;;;5028429;28;20284;-33
2023/05/04 00:17:28;;;;;;;7.55;5.43;;;14.20;91.50;;;;;;5027251;28;20673;-33
2023/05/04 00:19:58;;;;;;;7.22;5.50;;;14.20;91.50;;;;;;5025678;28;20743;-33
2023/05/04 00:22:25;;;;;;;7.95;5.68;;;14.20;91.50;;;;;;5024953;28;20213;-32
2023/05/04 00:24:54;;;;;;;9.48;5.72;;;14.20;91.50;;;;;;5028157;28;20202;-33
2023/05/04 00:27:24;;;;;;;9.43;6.38;;;14.20;91.50;;;;;;5029293;28;20336;-33
2023/05/04 00:29:56;;;;;;;8.75;6.05;;;14.20;91.50;;;;;;5025077;28;20213;-33
2023/05/04 00:32:26;;;;;;;7.78;5.78;;;14.20;91.50;;;;;;5035766;28;20204;-33
2023/05/04 00:35:03;;;;;;;7.47;5.72;;;14.10;91.50;;;;;;5050722;28;20234;-33
2023/05/04 00:37:33;;;;;;;11.50;6.40;;;14.10;91.60;;;;;;5030264;28;20296;-33
2023/05/04 00:40:05;;;;;;;7.10;6.03;;;14.10;91.60;;;;;;5026746;28;20205;-33
2023/05/04 00:42:33;;;;;;;9.30;5.78;;;14.10;91.60;;;;;;5025560;28;20663;-33
2023/05/04 00:45:02;;;;;;;8.73;5.65;;;14.10;91.60;;;;;;5022953;28;20216;-33
2023/05/04 00:47:31;;;;;;;8.40;5.78;;;14.10;91.70;;;;;;5024815;28;20299;-33
2023/05/04 00:50:01;;;;;;;7.03;5.70;;;14.10;91.70;;;;;;5033856;28;20219;-33
2023/05/04 00:52:32;;;;;;;7.13;6.20;;;14.10;91.70;;;;;;5052650;28;20669;-33
2023/05/04 00:55:05;;;;;;;9.07;6.07;;;14.00;91.60;;;;;;5026504;28;20647;-33
2023/05/04 00:57:32;;;;;;;9.18;5.53;;;14.00;91.70;;;;;;5031335;28;20232;-33
2023/05/04 01:00:01;;;;;;;10.18;6.57;;;14.00;91.70;;;;;;5028682;28;20356;-33
2023/05/04 01:02:33;;;;;;;9.48;6.50;;;14.00;91.70;;;;;;5026744;28;20681;-33
2023/05/04 01:05:01;;;;;;;10.93;6.28;;;14.00;91.70;;;;;;5024715;28;20216;-33
2023/05/04 01:07:38;;;;;;;8.18;5.80;;;13.90;91.60;;;;;;5029666;28;20788;-33
2023/05/04 01:10:19;;;;;;;7.28;6.30;;;13.90;91.70;;;;;;5028413;28;20304;-33
2023/05/04 01:13:04;;;;;;;9.38;6.20;;;13.90;91.70;;;;;;5035718;28;20794;-33
2023/05/04 01:15:32;;;;;;;8.07;6.17;;;13.80;91.80;;;;;;5040033;28;20204;-33
2023/05/04 01:17:59;;;;;;;10.38;6.80;;;13.80;91.70;;;;;;5034678;28;20281;-33
2023/05/04 01:20:27;;;;;;;8.30;6.33;;;13.80;91.80;;;;;;5036484;28;20345;-33
2023/05/04 01:22:57;;;;;;;7.23;5.40;;;13.80;91.70;;;;;;5030292;28;20231;-33
2023/05/04 01:25:30;;;;;;;10.13;6.30;;;13.80;91.70;;;;;;5027898;28;20680;-33
2023/05/04 01:28:11;;;;;;;9.10;5.80;;;13.70;92.00;;;;;;5032352;28;20344;-33
2023/05/04 01:30:47;;;;;;;9.23;6.10;;;13.80;91.90;;;;;;5040574;28;20285;-33
2023/05/04 01:33:16;;;;;;;8.65;6.13;;;13.70;91.80;;;;;;5034657;28;20219;-33
2023/05/04 01:35:44;;;;;;;11.60;6.50;;;13.70;91.70;;;;;;5043592;28;20211;-33
2023/05/04 01:38:11;;;;;;;7.38;6.25;;;13.70;91.70;;;;;;5041217;28;20228;-33
2023/05/04 01:40:41;;;;;;;8.85;5.93;;;13.60;91.70;;;;;;5031084;28;20240;-33
2023/05/04 01:43:13;;;;;;;8.45;6.10;;;13.60;91.70;;;;;;5023627;28;20212;-33
2023/05/04 01:45:42;;;;;;;8.10;5.68;;;13.60;91.70;;;;;;5026554;28;20204;-33
2023/05/04 01:48:10;;;;;;;8.32;6.40;;;13.60;91.80;;;;;;5040798;28;20240;-33
2023/05/04 01:50:37;;;;;;;8.57;6.40;;;13.60;91.70;;;;;;5034586;28;20228;-33
2023/05/04 01:53:09;;;;;;;8.18;5.97;;;13.60;91.80;;;;;;5024066;28;20466;-33
2023/05/04 01:55:36;;;;;;;8.27;6.40;;;13.60;92.10;;;;;;5031603;28;20208;-33
2023/05/04 01:58:04;;;;;;;7.78;6.05;;;13.50;91.80;;;;;;5037059;28;20307;-32
2023/05/04 02:00:31;;;;;;;7.82;6.38;;;13.50;91.80;;;;;;5044193;28;20612;-33
2023/05/04 02:02:59;;;;;;;7.93;6.07;;;13.50;91.80;;;;;;5044267;28;20208;-32
2023/05/04 02:05:26;;;;;;;11.60;6.67;;;13.50;91.80;;;;;;5041984;28;20211;-32
2023/05/04 02:07:53;;;;;;;8.63;6.10;;;13.50;91.80;;;;;;5041957;28;20840;-32
2023/05/04 02:10:20;;;;;;;8.30;6.00;;;13.50;91.80;;;;;;5036895;28;20208;-32
2023/05/04 02:12:51;;;;;;;8.13;6.10;;;13.50;91.80;;;;;;5028697;28;20312;-33
2023/05/04 02:15:18;;;;;;;10.98;6.97;;;13.40;91.80;;;;;;5037524;28;20200;-32
2023/05/04 02:17:45;;;;;;;9.25;6.82;;;13.50;91.90;;;;;;5038867;28;20204;-32
2023/05/04 02:20:17;;;;;;;11.37;6.50;;;13.40;91.80;;;;;;5036158;28;20761;-32
2023/05/04 02:22:45;;;;;;;8.80;6.95;;;13.40;91.80;;;;;;5022373;28;20271;-32
2023/05/04 02:25:14;;;;;;;9.15;6.60;;;13.30;91.80;;;;;;5032918;28;20208;-32
2023/05/04 02:27:44;;;;;;;8.43;6.63;;;13.30;91.90;;;;;;5043836;28;20274;-32
2023/05/04 02:30:14;;;;;;;8.23;6.80;;;13.30;91.90;;;;;;5020030;28;20232;-32
2023/05/04 02:32:47;;;;;;;9.07;6.97;;;13.20;91.90;;;;;;5022995;28;20219;-32
2023/05/04 02:35:18;;;;;;;9.40;7.00;;;13.20;91.90;;;;;;5023629;28;20216;-32
2023/05/04 02:37:47;;;;;;;9.97;7.10;;;13.20;92.00;;;;;;5021602;28;20205;-32
2023/05/04 02:40:15;;;;;;;10.57;7.25;;;13.10;91.80;;;;;;5035549;28;20210;-32
2023/05/04 02:42:47;;;;;;;10.13;6.80;;;13.10;91.80;;;;;;5041794;28;20299;-32
2023/05/04 02:45:21;;;;;;;11.13;6.78;;;13.10;91.90;;;;;;5039877;28;20283;-32
2023/05/04 02:47:51;;;;;;;9.48;7.10;;;13.10;91.90;;;;;;5021220;28;20296;-32
2023/05/04 02:50:21;;;;;;;10.98;6.90;;;13.10;91.90;;;;;;5037475;28;20212;-32
2023/05/04 02:52:50;;;;;;;13.37;7.43;;;13.10;91.90;;;;;;5039766;28;20291;-32
2023/05/04 02:55:18;;;;;;;11.33;7.73;;;13.10;91.90;;;;;;5036913;28;20205;-32
2023/05/04 02:57:45;;;;;;;12.17;7.63;;;13.00;92.00;;;;;;5021661;28;20237;-32
2023/05/04 03:00:12;;;;;;;9.07;7.28;;;13.00;92.00;;;;;;5029774;28;20770;-32
2023/05/04 03:02:39;;;;;;;10.80;7.10;;;13.00;91.90;;;;;;5033361;28;20636;-32
2023/05/04 03:05:09;;;;;;;10.10;7.43;;;13.00;91.90;;;;;;5029275;28;20634;-32
2023/05/04 03:07:37;;;;;;;9.73;7.37;;;13.00;91.90;;;;;;5042834;28;20777;-32
2023/05/04 03:10:08;;;;;;;10.07;6.80;;;13.00;92.00;;;;;;5038929;28;20208;-32
2023/05/04 03:12:43;;;;;;;9.77;6.93;;;13.00;92.00;;;;;;5041937;28;20895;-32
2023/05/04 03:15:15;;;;;;;10.30;7.27;;;12.90;92.00;;;;;;5031212;28;20602;-32
2023/05/04 03:17:45;;;;;;;13.60;7.83;;;12.90;92.10;;;;;;5023819;28;20597;-32
2023/05/04 03:20:17;;;;;;;10.17;7.90;;;12.90;92.00;;;;;;5034605;28;20215;-32
2023/05/04 03:22:44;;;;;;;13.13;8.23;;;12.90;92.10;;;;;;5041456;28;20227;-32
2023/05/04 03:25:11;;;;;;;14.20;8.03;;;12.80;92.00;;;;;;5041172;28;20792;-32
2023/05/04 03:27:41;;;;;;;15.07;8.53;;;12.80;92.40;;;;;;5041007;28;20651;-32
2023/05/04 03:30:11;;;;;;;12.23;8.05;;;12.80;92.10;;;;;;5040071;28;20250;-32
2023/05/04 03:32:39;;;;;;;14.73;8.43;;;12.80;92.10;;;;;;5021793;28;20229;-32
2023/05/04 03:35:09;;;;;;;11.90;8.57;;;12.80;92.10;;;;;;5040619;28;20285;-32
2023/05/04 03:37:39;;;;;;;11.07;8.30;;;12.80;92.10;;;;;;5028346;28;20299;-32
2023/05/04 03:40:06;;;;;;;12.50;8.38;;;12.80;92.10;;;;;;5034555;28;20614;-32
2023/05/04 03:42:37;;;;;;;12.47;8.10;;;12.80;92.10;;;;;;5028118;28;20217;-32
2023/05/04 03:45:04;;;;;;;12.07;7.83;;;12.70;92.00;;;;;;5025869;28;20362;-32
2023/05/04 03:47:36;;;;;;;11.52;8.25;;;12.70;92.00;;;;;;5026755;28;20461;-32
2023/05/04 03:50:04;;;;;;;9.73;7.97;;;12.70;92.50;;;;;;5039142;28;20227;-32
2023/05/04 03:52:32;;;;;;;12.50;7.68;;;12.60;92.20;;;;;;5029134;28;20231;-32
2023/05/04 03:55:01;;;;;;;15.40;7.63;;;12.60;92.20;;;;;;5025880;28;20750;-32
2023/05/04 03:57:31;;;;;;;13.57;8.23;;;12.60;92.20;;;;;;5043819;28;20527;-32
2023/05/04 03:59:58;;;;;;;8.83;7.37;;;12.60;92.20;;;;;;5045373;28;20666;-32
2023/05/04 04:02:25;;;;;;;10.85;8.00;;;12.60;92.20;;;;;;5036439;28;20196;-32
2023/05/04 04:04:53;;;;;;;11.80;8.50;;;12.60;92.20;;;;;;5038405;28;21049;-32
2023/05/04 04:07:22;;;;;;;13.83;8.30;;;12.60;92.20;;;;;;5043604;28;20227;-32
2023/05/04 04:09:52;;;;;;;11.53;8.03;;;12.50;92.30;;;;;;5042652;28;20277;-32
2023/05/04 04:12:21;;;;;;;9.63;7.22;;;12.50;92.20;;;;;;5027360;28;20225;-32
2023/05/04 04:14:50;;;;;;;10.80;7.70;;;12.50;92.20;;;;;;5034571;28;20228;-32
2023/05/04 04:17:20;;;;;;;10.40;7.40;;;12.50;92.20;;;;;;5035363;28;20245;-32
2023/05/04 04:19:47;;;;;;;10.77;7.40;;;12.50;92.20;;;;;;5044896;28;20725;-32
2023/05/04 04:22:16;;;;;;;10.47;6.97;;;12.50;92.20;;;;;;5043988;28;20196;-32
2023/05/04 04:24:46;;;;;;;10.13;7.37;;;12.50;92.30;;;;;;5030440;28;20205;-32
2023/05/04 04:27:14;;;;;;;11.13;7.43;;;12.40;92.20;;;;;;5025109;28;20336;-32
2023/05/04 04:29:41;;;;;;;9.87;7.47;;;12.40;92.40;;;;;;5042542;28;20208;-32
2023/05/04 04:32:09;;;;;;;10.13;7.13;;;12.40;92.30;;;;;;5038779;28;20228;-32
2023/05/04 04:34:39;;;;;;;10.57;7.28;;;12.40;92.30;;;;;;5042310;28;20227;-32
2023/05/04 04:37:06;;;;;;;14.87;7.67;;;12.40;92.40;;;;;;5043355;28;20323;-32
2023/05/04 04:39:33;;;;;;;10.63;7.77;;;12.40;92.40;;;;;;5032814;28;20200;-32
2023/05/04 04:42:03;;;;;;;10.77;8.00;;;12.40;92.40;;;;;;5035114;28;20711;-32
2023/05/04 04:44:32;;;;;;;16.00;7.35;;;12.30;92.40;;;;;;5030441;28;20209;-32
2023/05/04 04:47:05;;;;;;;9.98;7.70;;;12.30;92.40;;;;;;5025427;28;20215;-32
2023/05/04 04:49:32;;;;;;;11.87;8.43;;;12.30;92.40;;;;;;5044512;28;20657;-32
2023/05/04 04:52:04;;;;;;;9.97;7.67;;;12.30;92.80;;;;;;5039125;28;20468;-32
2023/05/04 04:54:34;;;;;;;10.47;7.20;;;12.30;92.50;;;;;;5029494;28;20220;-33
2023/05/04 04:57:06;;;;;;;11.57;8.05;;;12.30;92.50;;;;;;5047490;28;20649;-32
2023/05/04 04:59:38;;;;;;;13.90;8.27;;;12.30;92.50;;;;;;5046346;28;20200;-32
2023/05/04 05:02:05;;;;;;;12.35;7.95;;;12.30;92.40;;;;;;5036755;28;20645;-32
2023/05/04 05:04:34;;;;;;;10.32;7.45;;;12.30;92.50;;;;;;5041422;28;20307;-32
2023/05/04 05:07:01;;;;;;;11.20;7.28;;;12.40;92.60;;;;;;5036914;28;20207;-32
2023/05/04 05:09:31;;;;;;;12.73;7.20;;;12.40;92.60;;;;;;5035428;28;20673;-32
2023/05/04 05:12:01;;;;;;;17.77;9.03;;;12.40;92.60;;;;;;5034931;28;20231;-32
2023/05/04 05:14:30;;;;;;;16.33;8.40;;;12.40;92.90;;;;;;5040896;28;20291;-32
2023/05/04 05:17:02;;;;;;;13.67;8.50;;;12.40;92.80;;;;;;5038144;28;20231;-32
2023/05/04 05:19:35;;;;;;;11.17;7.60;;;12.40;92.70;;;;;;5039745;28;20208;-32
2023/05/04 05:22:05;;;;;;;11.25;7.20;;;12.50;92.80;;;;;;5024512;28;20228;-32
2023/05/04 05:24:34;;;;;;;15.50;8.00;;;12.50;92.90;;;;;;5023367;28;20589;-32
2023/05/04 05:27:04;;;;;;;11.80;7.03;;;12.50;92.80;;;;;;5043800;28;20200;-32
2023/05/04 05:29:34;;;;;;;10.63;7.53;;;12.50;92.90;;;;;;5040679;28;20228;-33
2023/05/04 05:32:04;;;;;;;15.57;7.78;;;12.60;93.00;;;;;;5030904;28;20252;-32
2023/05/04 05:34:37;;;;;;;14.45;7.45;;;12.60;93.00;;;;;;5023554;28;20228;-32
2023/05/04 05:37:04;;;;;;;13.93;7.70;;;12.60;93.10;;;;;;5025516;28;20583;-32
2023/05/04 05:39:36;;;;;;;12.48;7.60;;;12.60;93.10;;;;;;5034824;28;20204;-32
2023/05/04 05:42:04;;;;;;;10.05;7.35;;;12.70;93.10;;;;;;5033171;28;20204;-32
2023/05/04 05:44:36;;;;;;;13.98;8.20;;;12.70;93.20;;;;;;5040532;28;20287;-32
2023/05/04 05:47:04;;;;;;;19.73;7.97;;;12.80;93.20;;;;;;5044361;28;20540;-32
2023/05/04 05:49:36;;;;;;;11.98;7.65;;;12.80;93.20;;;;;;5036607;28;20304;-32
2023/05/04 05:52:06;;;;;;;11.90;7.67;;;12.80;93.20;;;;;;5037831;28;20632;-32
2023/05/04 05:54:40;;;;;;;12.83;7.90;;;12.90;93.20;;;;;;5040084;28;20305;-32
2023/05/04 05:57:11;;;;;;;15.10;8.33;;;12.90;93.20;;;;;;5042513;28;20238;-32
2023/05/04 05:59:40;;;;;;;11.68;7.57;;;13.00;93.40;;;;;;5040868;28;20294;-32
2023/05/04 06:02:08;;;;;;;12.63;7.97;;;13.00;93.30;;;;;;5026538;28;20690;-32
2023/05/04 06:04:35;;;;;;;11.20;7.70;;;13.00;93.20;;;;;;5022074;28;20217;-32
2023/05/04 06:07:05;;;;;;;13.80;7.93;;;13.00;93.40;;;;;;5023531;28;20740;-32
2023/05/04 06:09:35;;;;;;;10.25;6.97;;;13.00;93.40;;;;;;5037784;28;20208;-32
2023/05/04 06:12:10;;;;;;;10.97;7.43;;;13.10;93.30;;;;;;5038683;28;20255;-32
2023/05/04 06:14:42;;;;;;;11.37;7.10;;;13.10;93.40;;;;;;5039147;28;20206;-32
2023/05/04 06:17:10;;;;;;;12.45;7.60;;;13.10;93.50;;;;;;5041327;28;20196;-32
2023/05/04 06:19:38;;;;;;;13.50;7.67;;;13.20;93.70;;;;;;5025430;28;20296;-32
2023/05/04 06:22:07;;;;;;;11.27;7.00;;;13.20;93.50;;;;;;5026396;28;20208;-32
2023/05/04 06:24:39;;;;;;;12.60;6.97;;;13.30;93.90;;;;;;5025263;28;20303;-32
2023/05/04 06:27:06;;;;;;;12.63;6.80;;;13.30;93.60;;;;;;5032105;28;20209;-32
2023/05/04 06:29:33;;;;;;;9.43;6.57;;;13.40;93.70;;;;;;5036661;28;20319;-32
2023/05/04 06:32:03;;;;;;;12.90;7.43;;;13.50;93.80;;;;;;5025294;28;20803;-32
2023/05/04 06:34:33;;;;;;;10.77;6.45;;;13.60;93.90;;;;;;5042965;28;20200;-32
2023/05/04 06:37:00;;;;;;;8.00;5.97;;;13.60;93.90;;;;;;5042711;28;20211;-33
2023/05/04 06:39:30;;;;;;;11.52;6.97;;;13.70;94.00;;;;;;5042659;28;20735;-32
2023/05/04 06:42:01;;;;;;;8.00;6.53;;;13.80;94.00;;;;;;5037554;28;20204;-32
2023/05/04 06:44:32;;;;;;;14.53;6.87;;;13.90;94.10;;;;;;5034820;28;20639;-32
2023/05/04 06:47:06;;;;;;;9.30;6.05;;;14.00;94.10;;;;;;5041675;28;20222;-33
2023/05/04 06:49:34;;;;;;;8.00;6.20;;;14.10;94.20;;;;;;5039327;28;20227;-32
2023/05/04 06:52:01;;;;;;;7.68;5.65;;;14.20;94.30;;;;;;5034633;28;20722;-32
2023/05/04 06:54:28;;;;;;;7.05;5.20;;;14.30;94.40;;;;;;5038321;28;20270;-32
2023/05/04 06:56:58;;;;;;;7.00;5.75;;;14.40;94.40;;;;;;5040140;28;20601;-32
2023/05/04 06:59:28;;;;;;;7.88;5.35;;;14.50;94.50;;;;;;5022370;28;20291;-32
2023/05/04 07:01:55;;;;;;;8.68;5.57;;;14.60;94.60;;;;;;5032739;28;20200;-32
2023/05/04 07:04:25;;;;;;;9.27;5.57;;;14.70;94.60;;;;;;5038524;28;20705;-32
2023/05/04 07:06:52;;;;;;;7.90;5.30;;;14.80;94.60;;;;;;5026311;28;20568;-32
2023/05/04 07:09:22;;;;;;;7.40;5.30;;;14.90;94.60;;;;;;5020858;28;20201;-32
2023/05/04 07:11:51;;;;;;;8.27;5.53;;;14.90;94.70;;;;;;5025259;28;20223;-32
2023/05/04 07:14:20;;;;;;;7.10;5.10;;;15.00;94.70;;;;;;5036866;28;20223;-32
2023/05/04 07:16:47;;;;;;;10.90;6.15;;;15.10;94.80;;;;;;5045764;28;20562;-32
2023/05/04 07:19:17;;;;;;;11.07;5.50;;;15.20;94.80;;;;;;5036289;28;20302;-32
2023/05/04 07:21:49;;;;;;;13.65;6.10;;;15.30;94.90;;;;;;5044351;28;20259;-32
2023/05/04 07:24:18;;;;;;;11.07;5.75;;;15.30;95.00;;;;;;5026279;28;20201;-32
2023/05/04 07:26:46;;;;;;;10.45;5.90;;;15.40;95.00;;;;;;5028187;28;20205;-32
2023/05/04 07:29:15;;;;;;;10.30;5.68;;;15.50;95.10;;;;;;5029721;28;20748;-32
2023/05/04 07:31:45;;;;;;;10.20;5.68;;;15.60;95.10;;;;;;5026485;28;20630;-32
2023/05/04 07:34:12;;;;;;;8.50;5.30;;;15.70;95.20;;;;;;5036458;28;20788;-32
2023/05/04 07:36:39;;;;;;;7.90;5.57;;;15.80;95.30;;;;;;5045127;28;20709;-32
2023/05/04 07:39:11;;;;;;;7.45;5.10;;;15.80;95.30;;;;;;5046061;28;20204;-33
2023/05/04 07:41:45;;;;;;;8.05;4.97;;;15.90;95.30;;;;;;5035698;28;20843;-32
2023/05/04 07:44:17;;;;;;;11.63;5.70;;;16.00;95.40;;;;;;5033374;28;20207;-32
2023/05/04 07:46:45;;;;;;;10.57;5.90;;;16.10;95.40;;;;;;5051589;28;20209;-32
2023/05/04 07:49:14;;;;;;;10.20;5.40;;;16.20;95.40;;;;;;5042571;28;20700;-32
2023/05/04 07:51:46;;;;;;;7.53;5.18;;;16.30;95.50;;;;;;5039913;28;20205;-33
2023/05/04 07:54:16;;;;;;;6.20;4.70;;;16.30;95.50;;;;;;5032232;28;20201;-33
2023/05/04 07:56:44;;;;;;;12.85;5.57;;;16.40;95.50;;;;;;5034495;28;20232;-32
2023/05/04 07:59:16;;;;;;;7.30;4.75;;;16.50;95.60;;;;;;5036263;28;20294;-33
2023/05/04 08:01:44;;;;;;;9.32;5.60;;;16.50;95.60;;;;;;5041661;28;20197;-32
2023/05/04 08:04:13;;;;;;;10.43;5.18;;;16.60;95.60;;;;;;5030514;28;20216;-33
2023/05/04 08:06:43;;;;;;;5.45;4.70;;;16.60;95.70;;;;;;5032522;28;20207;-32
2023/05/04 08:09:13;;;;;;;8.35;4.82;;;16.70;95.70;;;;;;5025024;28;20299;-33
2023/05/04 08:11:41;;;;;;;7.63;4.45;;;16.80;95.70;;;;;;5025619;28;20213;-33
2023/05/04 08:14:11;;;;;;;13.27;5.60;;;16.90;95.80;;;;;;5023917;28;20698;-33
2023/05/04 08:16:43;;;;;;;7.65;5.50;;;16.90;95.70;;;;;;5024757;28;20334;-32
2023/05/04 08:19:13;;;;;;;8.65;4.65;;;16.90;95.80;;;;;;5034594;28;20266;-33
2023/05/04 08:21:40;;;;;;;10.05;5.18;;;17.00;95.80;;;;;;5043530;28;20286;-32
2023/05/04 08:24:07;;;;;;;8.38;4.50;;;17.00;95.90;;;;;;5024493;28;20225;-33
2023/05/04 08:26:38;;;;;;;6.72;5.18;;;17.10;95.90;;;;;;5024992;28;20667;-32
2023/05/04 08:29:09;;;;;;;8.43;4.80;;;17.20;95.90;;;;;;5022422;28;20626;-33
2023/05/04 08:31:39;;;;;;;9.90;5.50;;;17.20;95.90;;;;;;5025275;28;20990;-32
2023/05/04 08:34:06;;;;;;;6.80;4.80;;;17.30;95.90;;;;;;5033430;28;20901;-32
2023/05/04 08:36:36;;;;;;;7.30;4.72;;;17.30;96.00;;;;;;5044523;28;20277;-33
2023/05/04 08:39:03;;;;;;;7.22;5.22;;;17.40;96.00;;;;;;5040272;28;20288;-32
2023/05/04 08:41:31;;;;;;;8.07;4.97;;;17.40;96.00;;;;;;5045078;28;20203;-33
2023/05/04 08:44:08;;;;;;;10.80;5.50;;;17.40;96.10;;;;;;5028295;28;20208;-32
2023/05/04 08:46:41;;;;;;;7.15;5.05;;;17.50;96.10;;;;;;5042856;28;20200;-32
2023/05/04 08:49:10;;;;;;;7.75;4.53;;;17.60;96.00;;;;;;5042606;28;20833;-33
2023/05/04 08:51:42;;;;;;;6.35;4.25;;;17.60;96.00;;;;;;5042526;28;20203;-32
2023/05/04 08:54:12;;;;;;;7.00;5.35;;;17.70;96.10;;;;;;5033447;28;20698;-33
2023/05/04 08:56:40;;;;;;;10.48;5.40;;;17.70;96.20;;;;;;5025211;28;20327;-33
2023/05/04 08:59:19;;;;;;;10.27;4.95;;;17.70;96.00;;;;;;5028064;28;20234;-33
2023/05/04 09:01:58;;;;;;;8.90;4.65;;;17.80;96.10;;;;;;5024760;28;20220;-33
2023/05/04 09:04:29;;;;;;;7.95;4.53;;;17.90;96.20;;;;;;5024283;28;20219;-33
2023/05/04 09:07:03;;;;;;;5.28;3.67;;;17.90;96.20;;;;;;5039330;28;20278;-33
2023/05/04 09:09:35;;;;;;;5.05;3.70;;;18.00;96.40;;;;;;5023379;28;20602;-33
2023/05/04 09:12:03;;;;;;;5.22;3.78;;;18.10;96.40;;;;;;5024329;28;20221;-33
2023/05/04 09:14:35;;;;;;;5.35;3.78;;;18.20;96.50;;;;;;5029715;28;20295;-33
2023/05/04 09:17:24;;;;;;;3.90;3.50;;;18.30;96.50;;;;;;5029806;28;20247;-33
2023/05/04 09:20:02;;;;;;;7.72;4.18;;;18.40;96.50;;;;;;5039823;28;20201;-34
2023/05/04 09:22:34;;;;;;;4.30;3.67;;;18.40;96.50;;;;;;5038232;28;20197;-33
2023/05/04 09:25:10;;;;;;;10.10;4.60;;;18.50;96.60;;;;;;5025182;28;20270;-33
2023/05/04 09:27:41;;;;;;;20.60;5.63;;;18.60;96.60;;;;;;5036035;28;20222;-33
2023/05/04 09:30:11;;;;;;;10.32;5.03;;;18.70;96.70;;;;;;5022392;28;20235;-33
2023/05/04 09:32:48;;;;;;;9.82;4.13;;;18.70;96.70;;;;;;5031434;28;20651;-33
2023/05/04 09:35:34;;;;;;;9.38;4.55;;;18.80;96.80;;;;;;5039154;28;20768;-33
2023/05/04 09:38:01;;;;;;;5.25;3.97;;;18.90;96.80;;;;;;5021831;28;20201;-33
2023/05/04 09:40:45;;;;;;;6.97;4.80;;;18.90;96.70;;;;;;5037859;28;21118;-33
2023/05/04 09:43:17;;;;;;;8.27;4.03;;;19.00;96.80;;;;;;5043812;28;20277;-33
2023/05/04 09:45:50;;;;;;;6.45;4.60;;;19.10;96.80;;;;;;5038779;28;20219;-33
2023/05/04 09:48:24;;;;;;;7.50;4.47;;;19.10;96.70;;;;;;5041876;28;20707;-33
2023/05/04 09:50:59;;;;;;;10.88;4.82;;;19.20;96.50;;;;;;5038013;28;20219;-33
2023/05/04 09:53:32;;;;;;;4.85;3.78;;;19.20;96.50;;;;;;5021874;28;20526;-33
2023/05/04 09:56:16;;;;;;;6.32;4.80;;;19.20;96.90;;;;;;5023824;28;20252;-33
2023/05/04 09:58:48;;;;;;;6.45;5.03;;;19.30;96.70;;;;;;5037114;28;20216;-33
2023/05/04 10:01:16;;;;;;;9.27;4.60;;;19.40;96.70;;;;;;5043330;28;20214;-32
2023/05/04 10:03:46;;;;;;;7.30;5.10;;;19.40;96.60;;;;;;5037432;28;20209;-33
2023/05/04 10:06:16;;;;;;;4.30;3.78;;;19.50;96.60;;;;;;5023330;28;20212;-33
2023/05/04 10:08:44;;;;;;;6.32;4.97;;;19.60;96.80;;;;;;5035551;28;20222;-32
2023/05/04 10:11:14;;;;;;;7.07;5.15;;;19.60;96.80;;;;;;5041602;28;20204;-33
2023/05/04 10:13:47;;;;;;;4.93;4.35;;;19.70;96.60;;;;;;5030905;28;20640;-33
2023/05/04 10:16:44;;;;;;;5.45;4.75;;;19.80;97.00;;;;;;5023772;28;20213;-33
2023/05/04 10:19:29;;;;;;;7.55;4.80;;;19.80;97.00;;;;;;5038530;28;20398;-33
2023/05/04 10:22:11;;;;;;;5.32;4.68;;;19.90;97.10;;;;;;5043132;28;20278;-33
2023/05/04 10:25:02;;;;;;;8.02;5.38;;;19.90;97.10;;;;;;5038326;28;20292;-33
2023/05/04 10:27:39;;;;;;;6.38;4.60;;;20.00;96.90;;;;;;5041188;28;20200;-33
2023/05/04 10:30:14;;;;;;;6.13;5.35;;;20.00;97.10;;;;;;5023910;28;20215;-33
2023/05/04 10:32:41;;;;;;;5.40;4.90;;;20.10;97.10;;;;;;5022452;28;20735;-33
2023/05/04 10:35:12;;;;;;;5.60;4.55;;;20.10;97.10;;;;;;5042618;28;20216;-33
2023/05/04 10:37:55;;;;;;;5.68;4.10;;;20.20;97.10;;;;;;5042491;28;20660;-33
2023/05/04 10:40:35;;;;;;;6.53;4.40;;;20.30;97.30;;;;;;5039730;28;20645;-33
2023/05/04 10:43:03;;;;;;;5.78;4.68;;;20.30;97.30;;;;;;5026516;28;20358;-34
2023/05/04 10:45:36;;;;;;;5.93;4.53;;;20.40;97.40;;;;;;5026169;28;20612;-34
2023/05/04 10:48:04;;;;;;;5.88;4.68;;;20.40;97.40;;;;;;5038284;28;20204;-33
2023/05/04 10:50:42;;;;;;;6.15;4.72;;;20.50;97.40;;;;;;5041613;28;20763;-33
2023/05/04 10:53:15;;;;;;;5.20;4.45;;;20.60;97.50;;;;;;5026345;28;20620;-34
2023/05/04 10:55:49;;;;;;;5.15;4.15;;;20.70;97.50;;;;;;5035545;28;20280;-34
2023/05/04 10:58:27;;;;;;;6.50;4.20;;;20.70;97.60;;;;;;5040392;28;20216;-34
2023/05/04 11:00:57;;;;;;;5.10;4.28;;;20.70;98.00;;;;;;5021125;28;20192;-34
2023/05/04 11:03:40;;;;;;;5.57;4.22;;;20.80;97.70;;;;;;5023097;28;20263;-34
2023/05/04 11:06:23;;;;;;;7.05;4.38;;;20.90;97.80;;;;;;5041832;28;20566;-34
2023/05/04 11:09:01;;;;;;;8.30;5.90;;;20.90;97.80;;;;;;5038268;28;20772;-33
2023/05/04 11:11:37;;;;;;;5.43;4.40;;;21.10;97.40;;;;;;5035908;28;20212;-33
2023/05/04 11:14:04;;;;;;;5.65;3.75;;;21.20;97.70;;;;;;5038581;28;20227;-33
2023/05/04 11:16:32;;;;;;;7.00;4.43;;;21.20;97.80;;;;;;5029927;28;20225;-33
2023/05/04 11:19:08;;;;;;;5.68;3.60;;;21.30;97.60;;;;;;5026950;28;20674;-33
2023/05/04 11:21:39;;;;;;;4.43;3.67;;;21.30;97.60;;;;;;5038825;28;20286;-33
2023/05/04 11:24:08;;;;;;;4.70;3.47;;;21.30;97.60;;;;;;5022774;28;20582;-33
2023/05/04 11:26:48;;;;;;;3.55;3.03;;;21.40;97.80;;;;;;5022681;28;20347;-34
2023/05/04 11:29:15;;;;;;;4.10;3.30;;;21.50;98.00;;;;;;5020588;28;20654;-34
2023/05/04 11:31:55;;;;;;;4.32;3.10;;;21.60;98.00;;;;;;5021240;28;20688;-34
2023/05/04 11:34:22;;;;;;;4.35;3.05;;;21.70;97.80;;;;;;5028015;28;20600;-34
2023/05/04 11:36:57;;;;;;;4.55;3.47;;;21.70;98.10;;;;;;5042163;28;20196;-33
2023/05/04 11:39:32;;;;;;;5.95;3.70;;;21.80;97.70;;;;;;5037294;28;20200;-34
2023/05/04 11:42:03;;;;;;;3.97;2.75;;;21.90;97.80;;;;;;5029102;28;20231;-34
2023/05/04 11:44:39;;;;;;;9.93;4.32;;;22.00;98.00;;;;;;5033570;28;20478;-34
2023/05/04 11:47:07;;;;;;;5.97;3.60;;;22.10;98.00;;;;;;5022771;28;20296;-33
2023/05/04 11:49:36;;;;;;;4.50;2.80;;;22.20;98.20;;;;;;5026257;28;20308;-33
2023/05/04 11:52:12;;;;;;;6.82;3.30;;;22.20;98.20;;;;;;5038102;28;20216;-32
2023/05/04 11:54:41;;;;;;;6.15;3.25;;;22.30;98.10;;;;;;5041808;28;20271;-33
2023/05/04 11:57:09;;;;;;;6.10;3.45;;;22.40;98.20;;;;;;5038689;28;20247;-33
2023/05/04 11:59:52;;;;;;;3.85;3.15;;;22.40;98.30;;;;;;5029115;28;20312;-33
2023/05/04 12:02:22;;;;;;;5.38;3.03;;;22.50;98.30;;;;;;5032848;28;20204;-33
2023/05/04 12:04:49;;;;;;;3.83;2.45;;;22.60;98.40;;;;;;5041236;28;20239;-33
2023/05/04 12:07:16;;;;;;;5.72;3.40;;;22.70;98.50;;;;;;5036190;28;20212;-33
2023/05/04 12:09:49;;;;;;;6.95;2.65;;;22.80;98.50;;;;;;5040877;28;20248;-33
2023/05/04 12:12:20;;;;;;;3.30;2.22;;;22.80;97.60;;;;;;5025281;28;20308;-32
2023/05/04 12:14:57;;;;;;;3.05;2.60;;;22.90;98.20;;;;;;5024926;28;20323;-33
2023/05/04 12:17:29;;;;;;;6.43;3.42;;;22.90;97.80;;;;;;5033882;28;20678;-32
2023/05/04 12:19:56;;;;;;;5.32;3.30;;;23.00;98.00;;;;;;5027569;28;20208;-32
2023/05/04 12:22:31;;;;;;;4.55;3.30;;;23.10;98.30;;;;;;5031394;28;20275;-33
2023/05/04 12:24:59;;;;;;;8.10;3.42;;;23.10;98.10;;;;;;5041246;28;20261;-33
2023/05/04 12:27:31;;;;;;;6.47;3.40;;;23.20;98.20;;;;;;5032604;28;20233;-33
2023/05/04 12:29:58;;;;;;;6.50;3.78;;;23.30;98.40;;;;;;5039338;28;20678;-33
2023/05/04 12:32:27;;;;;;;4.95;2.70;;;23.40;98.50;;;;;;5029211;28;20311;-33
2023/05/04 12:34:57;;;;;;;3.63;3.00;;;23.50;98.60;;;;;;5035530;28;20277;-33
2023/05/04 12:37:26;;;;;;;5.03;3.50;;;23.50;98.60;;;;;;5031081;28;20204;-32
2023/05/04 12:39:56;;;;;;;6.40;3.50;;;23.60;98.30;;;;;;5036024;28;20204;-32
2023/05/04 12:42:26;;;;;;;4.70;3.20;;;23.70;98.50;;;;;;5030487;28;20228;-33
2023/05/04 12:44:53;;;;;;;6.13;2.83;;;23.80;98.60;;;;;;5039073;28;20243;-33
2023/05/04 12:47:23;;;;;;;6.80;3.78;;;23.80;98.60;;;;;;5026831;28;20251;-33
2023/05/04 12:49:50;;;;;;;12.77;3.72;;;23.90;98.30;;;;;;5021759;28;20670;-33
2023/05/04 12:52:18;;;;;;;5.20;4.55;;;23.90;98.30;;;;;;5040032;28;20235;-33
2023/05/04 12:54:47;;;;;;;3.60;3.08;;;24.00;98.00;;;;;;5032610;28;20259;-33
2023/05/04 12:57:14;;;;;;;5.97;3.40;;;24.00;98.50;;;;;;5041388;28;20246;-33
2023/05/04 12:59:44;;;;;;;5.03;3.60;;;24.10;98.60;;;;;;5036147;28;20212;-33